Terminal Aerodrome Forecast
Issued by NWS

Home | Current Version | Previous Version | Text Only | Print | Product List | Glossary On
Versions: 1 2 3 4 5 6 7 8 9 10 11 12 13 14 15 16 17 18 19 20 21 22 23 24 25 26 27 28 29 30 31 32 33
000
FTAK31 PANC 222320
TAFAEN
TAF
PAEN 222320Z 2300/2324 20010KT P6SM SCT007 BKN120
     FM230800 18005KT P6SM VCSH SCT050 BKN080
     FM231200 17005KT P6SM -SHRA SCT025 OVC045
     FM231800 23007KT P6SM SCT035 BKN060=

USA.gov is the U.S. government's official web portal to all federal, state and local government web resources and services.